sensor_id;sensor_type;location;lat;lon;timestamp;P1;durP1;ratioP1;P2;durP2;ratioP2
74100;SDS011;62462;52.530;21.682;2023-05-10T00:01:23;29.08;;;9.95;;
74100;SDS011;62462;52.530;21.682;2023-05-10T00:03:48;15.20;;;7.30;;
74100;SDS011;62462;52.530;21.682;2023-05-10T00:06:14;18.20;;;7.88;;
74100;SDS011;62462;52.530;21.682;2023-05-10T00:08:40;49.22;;;15.20;;
74100;SDS011;62462;52.530;21.682;2023-05-10T00:11:06;30.40;;;11.30;;
74100;SDS011;62462;52.530;21.682;2023-05-10T00:13:32;69.10;;;17.35;;
74100;SDS011;62462;52.530;21.682;2023-05-10T00:15:57;60.95;;;16.20;;
74100;SDS011;62462;52.530;21.682;2023-05-10T00:18:23;62.25;;;15.65;;
74100;SDS011;62462;52.530;21.682;2023-05-10T00:20:49;21.63;;;8.38;;
74100;SDS011;62462;52.530;21.682;2023-05-10T00:23:15;12.60;;;6.95;;
74100;SDS011;62462;52.530;21.682;2023-05-10T00:25:40;19.98;;;7.22;;
74100;SDS011;62462;52.530;21.682;2023-05-10T00:28:06;20.48;;;8.50;;
74100;SDS011;62462;52.530;21.682;2023-05-10T00:30:32;20.15;;;8.43;;
74100;SDS011;62462;52.530;21.682;2023-05-10T00:32:58;23.80;;;8.75;;
74100;SDS011;62462;52.530;21.682;2023-05-10T00:35:23;17.70;;;7.60;;
74100;SDS011;62462;52.530;21.682;2023-05-10T00:37:49;19.75;;;7.68;;
74100;SDS011;62462;52.530;21.682;2023-05-10T00:40:15;21.38;;;7.95;;
74100;SDS011;62462;52.530;21.682;2023-05-10T00:42:41;21.83;;;8.07;;
74100;SDS011;62462;52.530;21.682;2023-05-10T00:45:07;27.75;;;9.65;;
74100;SDS011;62462;52.530;21.682;2023-05-10T00:47:33;23.10;;;8.70;;
74100;SDS011;62462;52.530;21.682;2023-05-10T00:49:59;18.80;;;8.88;;
74100;SDS011;62462;52.530;21.682;2023-05-10T00:52:26;23.88;;;10.02;;
74100;SDS011;62462;52.530;21.682;2023-05-10T00:54:53;48.08;;;16.27;;
74100;SDS011;62462;52.530;21.682;2023-05-10T00:57:20;54.00;;;15.85;;
74100;SDS011;62462;52.530;21.682;2023-05-10T00:59:46;46.17;;;13.68;;
74100;SDS011;62462;52.530;21.682;2023-05-10T01:02:13;39.00;;;12.60;;
74100;SDS011;62462;52.530;21.682;2023-05-10T01:04:39;29.13;;;10.32;;
74100;SDS011;62462;52.530;21.682;2023-05-10T01:07:05;27.75;;;9.02;;
74100;SDS011;62462;52.530;21.682;2023-05-10T01:09:31;20.95;;;8.25;;
74100;SDS011;62462;52.530;21.682;2023-05-10T01:11:58;15.38;;;7.05;;
74100;SDS011;62462;52.530;21.682;2023-05-10T01:14:26;13.57;;;6.90;;
74100;SDS011;62462;52.530;21.682;2023-05-10T01:16:53;21.27;;;8.45;;
74100;SDS011;62462;52.530;21.682;2023-05-10T01:19:23;47.90;;;18.13;;
74100;SDS011;62462;52.530;21.682;2023-05-10T01:24:38;37.83;;;13.23;;
74100;SDS011;62462;52.530;21.682;2023-05-10T01:32:48;23.77;;;8.60;;
74100;SDS011;62462;52.530;21.682;2023-05-10T01:38:42;18.13;;;7.65;;
74100;SDS011;62462;52.530;21.682;2023-05-10T01:43:48;19.63;;;8.10;;
74100;SDS011;62462;52.530;21.682;2023-05-10T01:46:35;19.83;;;7.72;;
74100;SDS011;62462;52.530;21.682;2023-05-10T01:49:03;26.23;;;8.48;;
74100;SDS011;62462;52.530;21.682;2023-05-10T01:51:39;19.77;;;8.10;;
74100;SDS011;62462;52.530;21.682;2023-05-10T01:54:14;18.35;;;8.70;;
74100;SDS011;62462;52.530;21.682;2023-05-10T01:56:42;19.10;;;7.85;;
74100;SDS011;62462;52.530;21.682;2023-05-10T01:59:15;21.60;;;9.15;;
74100;SDS011;62462;52.530;21.682;2023-05-10T02:01:44;19.30;;;8.30;;
74100;SDS011;62462;52.530;21.682;2023-05-10T02:04:10;22.95;;;8.60;;
74100;SDS011;62462;52.530;21.682;2023-05-10T02:06:40;22.20;;;8.20;;
74100;SDS011;62462;52.530;21.682;2023-05-10T02:09:07;18.15;;;7.53;;
74100;SDS011;62462;52.530;21.682;2023-05-10T02:11:37;22.77;;;8.05;;
74100;SDS011;62462;52.530;21.682;2023-05-10T02:14:05;17.88;;;6.80;;
74100;SDS011;62462;52.530;21.682;2023-05-10T02:16:34;19.45;;;7.68;;
74100;SDS011;62462;52.530;21.682;2023-05-10T02:19:02;14.95;;;6.65;;
74100;SDS011;62462;52.530;21.682;2023-05-10T02:21:28;15.43;;;7.25;;
74100;SDS011;62462;52.530;21.682;2023-05-10T02:23:55;16.45;;;6.65;;
74100;SDS011;62462;52.530;21.682;2023-05-10T02:26:23;14.55;;;6.57;;
74100;SDS011;62462;52.530;21.682;2023-05-10T02:28:50;14.32;;;7.10;;
74100;SDS011;62462;52.530;21.682;2023-05-10T02:31:17;13.82;;;6.13;;
74100;SDS011;62462;52.530;21.682;2023-05-10T02:33:44;13.82;;;6.97;;
74100;SDS011;62462;52.530;21.682;2023-05-10T02:36:12;14.63;;;6.97;;
74100;SDS011;62462;52.530;21.682;2023-05-10T02:38:38;10.73;;;5.90;;
74100;SDS011;62462;52.530;21.682;2023-05-10T02:41:05;12.40;;;6.00;;
74100;SDS011;62462;52.530;21.682;2023-05-10T02:43:33;16.45;;;6.80;;
74100;SDS011;62462;52.530;21.682;2023-05-10T02:46:02;16.30;;;6.45;;
74100;SDS011;62462;52.530;21.682;2023-05-10T02:48:28;14.30;;;6.38;;
74100;SDS011;62462;52.530;21.682;2023-05-10T02:50:54;16.25;;;6.43;;
74100;SDS011;62462;52.530;21.682;2023-05-10T02:53:29;10.38;;;5.57;;
74100;SDS011;62462;52.530;21.682;2023-05-10T02:55:57;10.88;;;4.80;;
74100;SDS011;62462;52.530;21.682;2023-05-10T02:58:25;9.75;;;5.65;;
74100;SDS011;62462;52.530;21.682;2023-05-10T03:00:51;10.32;;;4.80;;
74100;SDS011;62462;52.530;21.682;2023-05-10T03:03:17;11.00;;;6.30;;
74100;SDS011;62462;52.530;21.682;2023-05-10T03:05:43;11.20;;;5.80;;
74100;SDS011;62462;52.530;21.682;2023-05-10T03:08:08;13.52;;;5.57;;
74100;SDS011;62462;52.530;21.682;2023-05-10T03:10:48;15.77;;;6.97;;
74100;SDS011;62462;52.530;21.682;2023-05-10T03:13:31;9.85;;;5.18;;
74100;SDS011;62462;52.530;21.682;2023-05-10T03:16:06;11.05;;;5.35;;
74100;SDS011;62462;52.530;21.682;2023-05-10T03:18:44;11.00;;;4.82;;
74100;SDS011;62462;52.530;21.682;2023-05-10T03:21:17;8.95;;;5.05;;
74100;SDS011;62462;52.530;21.682;2023-05-10T03:24:20;10.23;;;4.95;;
74100;SDS011;62462;52.530;21.682;2023-05-10T03:26:40;7.93;;;4.73;;
74100;SDS011;62462;52.530;21.682;2023-05-10T03:29:10;12.02;;;4.97;;
74100;SDS011;62462;52.530;21.682;2023-05-10T03:31:38;11.82;;;4.40;;
74100;SDS011;62462;52.530;21.682;2023-05-10T03:34:04;7.65;;;4.80;;
74100;SDS011;62462;52.530;21.682;2023-05-10T03:36:31;8.35;;;4.90;;
74100;SDS011;62462;52.530;21.682;2023-05-10T03:38:56;10.27;;;4.63;;
74100;SDS011;62462;52.530;21.682;2023-05-10T03:41:22;8.82;;;4.22;;
74100;SDS011;62462;52.530;21.682;2023-05-10T03:43:48;7.20;;;4.15;;
74100;SDS011;62462;52.530;21.682;2023-05-10T03:46:13;10.32;;;4.00;;
74100;SDS011;62462;52.530;21.682;2023-05-10T03:48:39;11.70;;;4.85;;
74100;SDS011;62462;52.530;21.682;2023-05-10T03:51:05;11.48;;;4.55;;
74100;SDS011;62462;52.530;21.682;2023-05-10T03:53:31;10.25;;;4.45;;
74100;SDS011;62462;52.530;21.682;2023-05-10T03:55:56;9.43;;;4.28;;
74100;SDS011;62462;52.530;21.682;2023-05-10T03:58:22;8.88;;;4.05;;
74100;SDS011;62462;52.530;21.682;2023-05-10T04:00:48;7.00;;;4.22;;
74100;SDS011;62462;52.530;21.682;2023-05-10T04:03:13;7.10;;;4.15;;
74100;SDS011;62462;52.530;21.682;2023-05-10T04:05:39;8.50;;;4.47;;
74100;SDS011;62462;52.530;21.682;2023-05-10T04:08:05;6.30;;;4.05;;
74100;SDS011;62462;52.530;21.682;2023-05-10T04:10:31;5.78;;;3.67;;
74100;SDS011;62462;52.530;21.682;2023-05-10T04:12:57;10.15;;;4.45;;
74100;SDS011;62462;52.530;21.682;2023-05-10T04:15:23;7.25;;;4.30;;
74100;SDS011;62462;52.530;21.682;2023-05-10T04:17:49;10.98;;;4.88;;
74100;SDS011;62462;52.530;21.682;2023-05-10T04:20:15;9.18;;;3.72;;
74100;SDS011;62462;52.530;21.682;2023-05-10T04:22:41;6.55;;;4.13;;
74100;SDS011;62462;52.530;21.682;2023-05-10T04:25:07;6.70;;;4.30;;
74100;SDS011;62462;52.530;21.682;2023-05-10T04:27:33;11.32;;;4.15;;
74100;SDS011;62462;52.530;21.682;2023-05-10T04:29:59;7.07;;;4.03;;
74100;SDS011;62462;52.530;21.682;2023-05-10T04:32:25;10.63;;;4.05;;
74100;SDS011;62462;52.530;21.682;2023-05-10T04:34:50;7.00;;;3.88;;
74100;SDS011;62462;52.530;21.682;2023-05-10T04:37:16;7.55;;;4.07;;
74100;SDS011;62462;52.530;21.682;2023-05-10T04:39:42;7.18;;;4.20;;
74100;SDS011;62462;52.530;21.682;2023-05-10T04:42:08;6.38;;;3.85;;
74100;SDS011;62462;52.530;21.682;2023-05-10T04:44:34;5.93;;;4.10;;
74100;SDS011;62462;52.530;21.682;2023-05-10T04:47:01;10.70;;;4.18;;
74100;SDS011;62462;52.530;21.682;2023-05-10T04:49:28;6.97;;;3.92;;
74100;SDS011;62462;52.530;21.682;2023-05-10T04:51:54;8.85;;;4.43;;
74100;SDS011;62462;52.530;21.682;2023-05-10T04:54:20;12.13;;;4.53;;
74100;SDS011;62462;52.530;21.682;2023-05-10T04:56:46;7.00;;;4.07;;
74100;SDS011;62462;52.530;21.682;2023-05-10T04:59:11;10.45;;;4.40;;
74100;SDS011;62462;52.530;21.682;2023-05-10T05:01:37;8.25;;;4.22;;
74100;SDS011;62462;52.530;21.682;2023-05-10T05:04:03;10.15;;;4.45;;
74100;SDS011;62462;52.530;21.682;2023-05-10T05:06:29;7.60;;;4.03;;
74100;SDS011;62462;52.530;21.682;2023-05-10T05:08:54;6.72;;;4.10;;
74100;SDS011;62462;52.530;21.682;2023-05-10T05:11:20;8.68;;;4.00;;
74100;SDS011;62462;52.530;21.682;2023-05-10T05:13:46;6.82;;;3.90;;
74100;SDS011;62462;52.530;21.682;2023-05-10T05:16:11;9.02;;;3.60;;
74100;SDS011;62462;52.530;21.682;2023-05-10T05:18:37;7.05;;;3.63;;
74100;SDS011;62462;52.530;21.682;2023-05-10T05:21:12;11.60;;;4.25;;
74100;SDS011;62462;52.530;21.682;2023-05-10T05:23:42;12.32;;;4.10;;
74100;SDS011;62462;52.530;21.682;2023-05-10T05:26:08;9.35;;;4.07;;
74100;SDS011;62462;52.530;21.682;2023-05-10T05:28:34;7.07;;;3.92;;
74100;SDS011;62462;52.530;21.682;2023-05-10T05:31:02;12.43;;;4.43;;
74100;SDS011;62462;52.530;21.682;2023-05-10T05:33:29;7.70;;;4.40;;
74100;SDS011;62462;52.530;21.682;2023-05-10T05:35:54;8.57;;;3.60;;
74100;SDS011;62462;52.530;21.682;2023-05-10T05:38:20;7.13;;;3.80;;
74100;SDS011;62462;52.530;21.682;2023-05-10T05:40:46;9.35;;;3.92;;
74100;SDS011;62462;52.530;21.682;2023-05-10T05:43:12;5.57;;;3.53;;
74100;SDS011;62462;52.530;21.682;2023-05-10T05:45:38;11.57;;;3.70;;
74100;SDS011;62462;52.530;21.682;2023-05-10T05:48:04;13.65;;;4.40;;
74100;SDS011;62462;52.530;21.682;2023-05-10T05:50:30;8.90;;;4.10;;
74100;SDS011;62462;52.530;21.682;2023-05-10T05:52:56;10.20;;;3.60;;
74100;SDS011;62462;52.530;21.682;2023-05-10T05:55:22;9.57;;;4.10;;
74100;SDS011;62462;52.530;21.682;2023-05-10T05:57:49;9.48;;;3.78;;
74100;SDS011;62462;52.530;21.682;2023-05-10T06:00:15;9.85;;;3.40;;
74100;SDS011;62462;52.530;21.682;2023-05-10T06:02:41;7.75;;;3.78;;
74100;SDS011;62462;52.530;21.682;2023-05-10T06:05:07;6.72;;;3.58;;
74100;SDS011;62462;52.530;21.682;2023-05-10T06:07:33;5.70;;;3.22;;
74100;SDS011;62462;52.530;21.682;2023-05-10T06:09:59;8.15;;;3.15;;
74100;SDS011;62462;52.530;21.682;2023-05-10T06:12:24;9.90;;;3.65;;
74100;SDS011;62462;52.530;21.682;2023-05-10T06:14:50;4.65;;;3.05;;
74100;SDS011;62462;52.530;21.682;2023-05-10T06:17:16;9.07;;;3.20;;
74100;SDS011;62462;52.530;21.682;2023-05-10T06:19:41;7.93;;;3.35;;
74100;SDS011;62462;52.530;21.682;2023-05-10T06:22:07;10.13;;;3.38;;
74100;SDS011;62462;52.530;21.682;2023-05-10T06:24:33;10.38;;;3.40;;
74100;SDS011;62462;52.530;21.682;2023-05-10T06:26:59;5.15;;;3.05;;
74100;SDS011;62462;52.530;21.682;2023-05-10T06:29:25;8.68;;;3.30;;
74100;SDS011;62462;52.530;21.682;2023-05-10T06:31:51;6.65;;;2.97;;
74100;SDS011;62462;52.530;21.682;2023-05-10T06:34:17;5.00;;;3.17;;
74100;SDS011;62462;52.530;21.682;2023-05-10T06:36:42;7.80;;;3.22;;
74100;SDS011;62462;52.530;21.682;2023-05-10T06:39:08;4.55;;;3.00;;
74100;SDS011;62462;52.530;21.682;2023-05-10T06:41:36;10.95;;;3.67;;
74100;SDS011;62462;52.530;21.682;2023-05-10T06:44:02;7.38;;;3.58;;
74100;SDS011;62462;52.530;21.682;2023-05-10T06:46:28;5.95;;;2.90;;
74100;SDS011;62462;52.530;21.682;2023-05-10T06:48:54;8.10;;;3.13;;
74100;SDS011;62462;52.530;21.682;2023-05-10T06:51:20;8.82;;;2.75;;
74100;SDS011;62462;52.530;21.682;2023-05-10T06:53:46;5.75;;;3.38;;
74100;SDS011;62462;52.530;21.682;2023-05-10T06:56:12;5.60;;;2.78;;
74100;SDS011;62462;52.530;21.682;2023-05-10T06:58:38;3.78;;;2.60;;
74100;SDS011;62462;52.530;21.682;2023-05-10T07:01:06;13.15;;;3.13;;
74100;SDS011;62462;52.530;21.682;2023-05-10T07:03:32;6.70;;;3.03;;
74100;SDS011;62462;52.530;21.682;2023-05-10T07:06:04;6.68;;;2.92;;
74100;SDS011;62462;52.530;21.682;2023-05-10T07:08:31;6.25;;;2.83;;
74100;SDS011;62462;52.530;21.682;2023-05-10T07:11:04;7.90;;;2.63;;
74100;SDS011;62462;52.530;21.682;2023-05-10T07:13:32;5.85;;;3.00;;
74100;SDS011;62462;52.530;21.682;2023-05-10T07:15:59;7.30;;;2.70;;
74100;SDS011;62462;52.530;21.682;2023-05-10T07:18:25;5.03;;;2.70;;
74100;SDS011;62462;52.530;21.682;2023-05-10T07:20:51;7.18;;;2.72;;
74100;SDS011;62462;52.530;21.682;2023-05-10T07:23:17;6.85;;;2.60;;
74100;SDS011;62462;52.530;21.682;2023-05-10T07:25:46;5.45;;;2.28;;
74100;SDS011;62462;52.530;21.682;2023-05-10T07:28:13;6.22;;;2.25;;
74100;SDS011;62462;52.530;21.682;2023-05-10T07:30:40;5.90;;;2.20;;
74100;SDS011;62462;52.530;21.682;2023-05-10T07:33:06;2.60;;;1.95;;
74100;SDS011;62462;52.530;21.682;2023-05-10T07:35:33;5.50;;;2.25;;
74100;SDS011;62462;52.530;21.682;2023-05-10T07:37:59;5.95;;;1.92;;
74100;SDS011;62462;52.530;21.682;2023-05-10T07:40:25;6.90;;;2.25;;
74100;SDS011;62462;52.530;21.682;2023-05-10T07:42:50;8.20;;;2.10;;
74100;SDS011;62462;52.530;21.682;2023-05-10T07:45:16;5.47;;;2.20;;
74100;SDS011;62462;52.530;21.682;2023-05-10T07:47:43;4.82;;;1.85;;
74100;SDS011;62462;52.530;21.682;2023-05-10T07:50:08;6.57;;;2.20;;
74100;SDS011;62462;52.530;21.682;2023-05-10T07:52:34;5.72;;;1.85;;
74100;SDS011;62462;52.530;21.682;2023-05-10T07:55:00;6.13;;;2.03;;
74100;SDS011;62462;52.530;21.682;2023-05-10T07:57:26;6.78;;;1.98;;
74100;SDS011;62462;52.530;21.682;2023-05-10T07:59:51;4.85;;;1.98;;
74100;SDS011;62462;52.530;21.682;2023-05-10T08:02:17;4.25;;;2.00;;
74100;SDS011;62462;52.530;21.682;2023-05-10T08:04:43;5.60;;;1.83;;
74100;SDS011;62462;52.530;21.682;2023-05-10T08:07:09;5.35;;;1.88;;
74100;SDS011;62462;52.530;21.682;2023-05-10T08:09:35;2.63;;;1.67;;
74100;SDS011;62462;52.530;21.682;2023-05-10T08:12:01;7.50;;;2.13;;
74100;SDS011;62462;52.530;21.682;2023-05-10T08:14:28;5.18;;;2.22;;
74100;SDS011;62462;52.530;21.682;2023-05-10T08:16:54;4.47;;;1.75;;
74100;SDS011;62462;52.530;21.682;2023-05-10T08:19:20;4.60;;;1.88;;
74100;SDS011;62462;52.530;21.682;2023-05-10T08:21:46;6.63;;;1.70;;
74100;SDS011;62462;52.530;21.682;2023-05-10T08:24:12;6.25;;;1.85;;
74100;SDS011;62462;52.530;21.682;2023-05-10T08:26:38;12.18;;;2.20;;
74100;SDS011;62462;52.530;21.682;2023-05-10T08:29:04;8.20;;;1.83;;
74100;SDS011;62462;52.530;21.682;2023-05-10T08:31:29;9.25;;;2.00;;
74100;SDS011;62462;52.530;21.682;2023-05-10T08:33:55;14.77;;;2.72;;
74100;SDS011;62462;52.530;21.682;2023-05-10T08:36:21;11.20;;;1.90;;
74100;SDS011;62462;52.530;21.682;2023-05-10T08:38:52;5.40;;;1.83;;
74100;SDS011;62462;52.530;21.682;2023-05-10T08:41:21;11.02;;;1.70;;
74100;SDS011;62462;52.530;21.682;2023-05-10T08:43:52;3.50;;;1.77;;
74100;SDS011;62462;52.530;21.682;2023-05-10T08:46:21;6.57;;;2.17;;
74100;SDS011;62462;52.530;21.682;2023-05-10T08:48:49;5.10;;;1.80;;
74100;SDS011;62462;52.530;21.682;2023-05-10T08:51:19;6.20;;;1.67;;
74100;SDS011;62462;52.530;21.682;2023-05-10T08:56:16;2.47;;;1.70;;
74100;SDS011;62462;52.530;21.682;2023-05-10T08:58:42;4.20;;;1.80;;
74100;SDS011;62462;52.530;21.682;2023-05-10T09:01:09;4.43;;;2.10;;
74100;SDS011;62462;52.530;21.682;2023-05-10T09:03:37;4.38;;;2.00;;
74100;SDS011;62462;52.530;21.682;2023-05-10T09:06:04;9.43;;;1.73;;
74100;SDS011;62462;52.530;21.682;2023-05-10T09:08:30;10.00;;;2.33;;
74100;SDS011;62462;52.530;21.682;2023-05-10T09:10:56;4.22;;;1.80;;
74100;SDS011;62462;52.530;21.682;2023-05-10T09:13:22;5.32;;;1.83;;
74100;SDS011;62462;52.530;21.682;2023-05-10T09:15:49;4.88;;;1.88;;
74100;SDS011;62462;52.530;21.682;2023-05-10T09:18:16;5.32;;;1.90;;
74100;SDS011;62462;52.530;21.682;2023-05-10T09:20:42;5.70;;;1.70;;
74100;SDS011;62462;52.530;21.682;2023-05-10T09:23:08;3.72;;;1.50;;
74100;SDS011;62462;52.530;21.682;2023-05-10T09:25:34;9.05;;;1.88;;
74100;SDS011;62462;52.530;21.682;2023-05-10T09:28:00;8.13;;;2.03;;
74100;SDS011;62462;52.530;21.682;2023-05-10T09:30:26;3.75;;;1.60;;
74100;SDS011;62462;52.530;21.682;2023-05-10T09:32:54;10.50;;;1.83;;
74100;SDS011;62462;52.530;21.682;2023-05-10T09:35:22;6.10;;;1.42;;
74100;SDS011;62462;52.530;21.682;2023-05-10T09:37:51;3.90;;;1.35;;
74100;SDS011;62462;52.530;21.682;2023-05-10T09:40:22;5.20;;;1.88;;
74100;SDS011;62462;52.530;21.682;2023-05-10T09:42:54;4.13;;;2.08;;
74100;SDS011;62462;52.530;21.682;2023-05-10T09:45:20;4.40;;;1.55;;
74100;SDS011;62462;52.530;21.682;2023-05-10T09:47:46;8.27;;;2.20;;
74100;SDS011;62462;52.530;21.682;2023-05-10T09:50:13;5.63;;;1.45;;
74100;SDS011;62462;52.530;21.682;2023-05-10T09:55:15;3.97;;;1.60;;
74100;SDS011;62462;52.530;21.682;2023-05-10T09:57:42;9.45;;;1.70;;
74100;SDS011;62462;52.530;21.682;2023-05-10T10:00:08;4.88;;;1.50;;
74100;SDS011;62462;52.530;21.682;2023-05-10T10:02:37;3.40;;;1.52;;
74100;SDS011;62462;52.530;21.682;2023-05-10T10:05:05;5.30;;;2.20;;
74100;SDS011;62462;52.530;21.682;2023-05-10T10:07:31;9.52;;;1.58;;
74100;SDS011;62462;52.530;21.682;2023-05-10T10:09:58;6.88;;;1.58;;
74100;SDS011;62462;52.530;21.682;2023-05-10T10:12:25;4.03;;;1.80;;
74100;SDS011;62462;52.530;21.682;2023-05-10T10:14:51;4.07;;;1.95;;
74100;SDS011;62462;52.530;21.682;2023-05-10T10:17:18;3.60;;;1.95;;
74100;SDS011;62462;52.530;21.682;2023-05-10T10:19:44;4.28;;;1.80;;
74100;SDS011;62462;52.530;21.682;2023-05-10T10:22:10;4.85;;;1.83;;
74100;SDS011;62462;52.530;21.682;2023-05-10T10:24:37;3.70;;;1.73;;
74100;SDS011;62462;52.530;21.682;2023-05-10T10:29:49;4.78;;;1.70;;
74100;SDS011;62462;52.530;21.682;2023-05-10T10:35:42;3.85;;;2.00;;
74100;SDS011;62462;52.530;21.682;2023-05-10T10:38:11;10.95;;;2.97;;
74100;SDS011;62462;52.530;21.682;2023-05-10T10:40:38;6.95;;;1.58;;
74100;SDS011;62462;52.530;21.682;2023-05-10T10:43:23;3.35;;;1.38;;
74100;SDS011;62462;52.530;21.682;2023-05-10T10:46:09;5.00;;;1.60;;
74100;SDS011;62462;52.530;21.682;2023-05-10T10:48:39;5.18;;;1.80;;
74100;SDS011;62462;52.530;21.682;2023-05-10T10:51:06;2.85;;;1.92;;
74100;SDS011;62462;52.530;21.682;2023-05-10T10:53:32;4.50;;;1.60;;
74100;SDS011;62462;52.530;21.682;2023-05-10T10:56:05;3.17;;;1.60;;
74100;SDS011;62462;52.530;21.682;2023-05-10T10:58:37;5.50;;;1.70;;
74100;SDS011;62462;52.530;21.682;2023-05-10T11:03:39;4.03;;;1.63;;
74100;SDS011;62462;52.530;21.682;2023-05-10T11:06:05;4.35;;;1.30;;
74100;SDS011;62462;52.530;21.682;2023-05-10T11:08:32;4.82;;;1.63;;
74100;SDS011;62462;52.530;21.682;2023-05-10T11:11:06;2.10;;;1.67;;
74100;SDS011;62462;52.530;21.682;2023-05-10T11:13:42;2.70;;;1.80;;
74100;SDS011;62462;52.530;21.682;2023-05-10T11:16:17;3.88;;;1.60;;
74100;SDS011;62462;52.530;21.682;2023-05-10T11:19:04;3.95;;;1.67;;
74100;SDS011;62462;52.530;21.682;2023-05-10T11:21:34;5.00;;;1.70;;
74100;SDS011;62462;52.530;21.682;2023-05-10T11:24:14;5.85;;;1.75;;
74100;SDS011;62462;52.530;21.682;2023-05-10T11:26:42;3.92;;;1.50;;
74100;SDS011;62462;52.530;21.682;2023-05-10T11:29:07;4.50;;;1.67;;
74100;SDS011;62462;52.530;21.682;2023-05-10T11:31:34;4.18;;;2.15;;
74100;SDS011;62462;52.530;21.682;2023-05-10T11:34:00;13.50;;;1.80;;
74100;SDS011;62462;52.530;21.682;2023-05-10T11:36:27;9.73;;;1.90;;
74100;SDS011;62462;52.530;21.682;2023-05-10T11:39:00;5.60;;;1.90;;
74100;SDS011;62462;52.530;21.682;2023-05-10T11:41:27;3.70;;;1.52;;
74100;SDS011;62462;52.530;21.682;2023-05-10T11:43:54;6.22;;;1.58;;
74100;SDS011;62462;52.530;21.682;2023-05-10T11:46:21;1.83;;;1.25;;
74100;SDS011;62462;52.530;21.682;2023-05-10T11:48:49;8.32;;;2.05;;
74100;SDS011;62462;52.530;21.682;2023-05-10T11:51:19;4.70;;;1.73;;
74100;SDS011;62462;52.530;21.682;2023-05-10T11:53:46;4.75;;;1.60;;
74100;SDS011;62462;52.530;21.682;2023-05-10T11:56:11;6.07;;;1.77;;
74100;SDS011;62462;52.530;21.682;2023-05-10T11:58:38;3.80;;;1.60;;
74100;SDS011;62462;52.530;21.682;2023-05-10T12:01:07;6.82;;;1.80;;
74100;SDS011;62462;52.530;21.682;2023-05-10T12:03:34;2.83;;;1.50;;
74100;SDS011;62462;52.530;21.682;2023-05-10T12:05:59;4.55;;;1.50;;
74100;SDS011;62462;52.530;21.682;2023-05-10T12:08:27;4.70;;;1.63;;
74100;SDS011;62462;52.530;21.682;2023-05-10T12:11:03;3.08;;;1.50;;
74100;SDS011;62462;52.530;21.682;2023-05-10T12:13:39;3.70;;;1.75;;
74100;SDS011;62462;52.530;21.682;2023-05-10T12:16:12;3.37;;;1.70;;
74100;SDS011;62462;52.530;21.682;2023-05-10T12:21:06;5.35;;;1.80;;
74100;SDS011;62462;52.530;21.682;2023-05-10T12:23:34;5.57;;;1.50;;
74100;SDS011;62462;52.530;21.682;2023-05-10T12:26:01;4.22;;;1.60;;
74100;SDS011;62462;52.530;21.682;2023-05-10T12:28:31;3.38;;;1.67;;
74100;SDS011;62462;52.530;21.682;2023-05-10T12:30:58;3.80;;;1.65;;
74100;SDS011;62462;52.530;21.682;2023-05-10T12:33:24;7.55;;;1.65;;
74100;SDS011;62462;52.530;21.682;2023-05-10T12:35:51;6.45;;;1.85;;
74100;SDS011;62462;52.530;21.682;2023-05-10T12:40:51;4.20;;;1.40;;
74100;SDS011;62462;52.530;21.682;2023-05-10T12:43:17;2.30;;;1.80;;
74100;SDS011;62462;52.530;21.682;2023-05-10T12:45:43;2.17;;;1.70;;
74100;SDS011;62462;52.530;21.682;2023-05-10T12:48:12;7.13;;;1.92;;
74100;SDS011;62462;52.530;21.682;2023-05-10T12:50:38;4.20;;;1.63;;
74100;SDS011;62462;52.530;21.682;2023-05-10T12:53:04;2.92;;;1.80;;
74100;SDS011;62462;52.530;21.682;2023-05-10T12:55:30;3.17;;;1.70;;
74100;SDS011;62462;52.530;21.682;2023-05-10T12:57:56;3.10;;;1.60;;
74100;SDS011;62462;52.530;21.682;2023-05-10T13:00:22;4.50;;;1.75;;
74100;SDS011;62462;52.530;21.682;2023-05-10T13:02:47;1.80;;;1.40;;
74100;SDS011;62462;52.530;21.682;2023-05-10T13:05:14;5.47;;;2.00;;
74100;SDS011;62462;52.530;21.682;2023-05-10T13:07:39;4.47;;;1.50;;
74100;SDS011;62462;52.530;21.682;2023-05-10T13:10:06;6.55;;;1.60;;
74100;SDS011;62462;52.530;21.682;2023-05-10T13:12:32;5.65;;;1.63;;
74100;SDS011;62462;52.530;21.682;2023-05-10T13:14:58;3.50;;;1.50;;
74100;SDS011;62462;52.530;21.682;2023-05-10T13:17:25;2.03;;;1.40;;
74100;SDS011;62462;52.530;21.682;2023-05-10T13:19:51;8.15;;;1.60;;
74100;SDS011;62462;52.530;21.682;2023-05-10T13:22:16;2.65;;;1.75;;
74100;SDS011;62462;52.530;21.682;2023-05-10T13:24:42;4.63;;;2.42;;
74100;SDS011;62462;52.530;21.682;2023-05-10T13:27:08;4.60;;;2.00;;
74100;SDS011;62462;52.530;21.682;2023-05-10T13:29:34;6.10;;;1.90;;
74100;SDS011;62462;52.530;21.682;2023-05-10T13:32:00;5.93;;;1.60;;
74100;SDS011;62462;52.530;21.682;2023-05-10T13:34:26;2.90;;;1.55;;
74100;SDS011;62462;52.530;21.682;2023-05-10T13:36:52;13.70;;;1.80;;
74100;SDS011;62462;52.530;21.682;2023-05-10T13:39:19;3.97;;;2.10;;
74100;SDS011;62462;52.530;21.682;2023-05-10T13:41:45;2.35;;;1.42;;
74100;SDS011;62462;52.530;21.682;2023-05-10T13:44:12;4.72;;;1.60;;
74100;SDS011;62462;52.530;21.682;2023-05-10T13:46:39;4.28;;;1.83;;
74100;SDS011;62462;52.530;21.682;2023-05-10T13:49:05;5.22;;;2.30;;
74100;SDS011;62462;52.530;21.682;2023-05-10T13:51:31;6.95;;;3.00;;
74100;SDS011;62462;52.530;21.682;2023-05-10T13:53:58;10.73;;;3.40;;
74100;SDS011;62462;52.530;21.682;2023-05-10T13:56:24;6.03;;;1.50;;
74100;SDS011;62462;52.530;21.682;2023-05-10T13:58:49;7.68;;;2.20;;
74100;SDS011;62462;52.530;21.682;2023-05-10T14:01:16;6.82;;;2.00;;
74100;SDS011;62462;52.530;21.682;2023-05-10T14:03:42;3.53;;;1.77;;
74100;SDS011;62462;52.530;21.682;2023-05-10T14:06:08;8.23;;;1.95;;
74100;SDS011;62462;52.530;21.682;2023-05-10T14:08:34;6.60;;;1.70;;
74100;SDS011;62462;52.530;21.682;2023-05-10T14:11:00;2.50;;;1.60;;
74100;SDS011;62462;52.530;21.682;2023-05-10T14:13:26;5.53;;;1.45;;
74100;SDS011;62462;52.530;21.682;2023-05-10T14:15:53;3.28;;;1.95;;
74100;SDS011;62462;52.530;21.682;2023-05-10T14:18:19;2.53;;;1.52;;
74100;SDS011;62462;52.530;21.682;2023-05-10T14:20:45;3.22;;;1.40;;
74100;SDS011;62462;52.530;21.682;2023-05-10T14:23:11;2.90;;;1.63;;
74100;SDS011;62462;52.530;21.682;2023-05-10T14:25:40;3.38;;;1.67;;
74100;SDS011;62462;52.530;21.682;2023-05-10T14:28:05;2.83;;;1.80;;
74100;SDS011;62462;52.530;21.682;2023-05-10T14:30:31;2.13;;;1.50;;
74100;SDS011;62462;52.530;21.682;2023-05-10T14:32:59;5.82;;;2.20;;
74100;SDS011;62462;52.530;21.682;2023-05-10T14:35:26;3.45;;;2.05;;
74100;SDS011;62462;52.530;21.682;2023-05-10T14:37:52;4.88;;;1.70;;
74100;SDS011;62462;52.530;21.682;2023-05-10T14:40:18;4.57;;;1.90;;
74100;SDS011;62462;52.530;21.682;2023-05-10T14:42:44;6.03;;;1.63;;
74100;SDS011;62462;52.530;21.682;2023-05-10T14:45:10;7.70;;;2.00;;
74100;SDS011;62462;52.530;21.682;2023-05-10T14:47:37;8.38;;;2.20;;
74100;SDS011;62462;52.530;21.682;2023-05-10T14:50:02;7.47;;;2.00;;
74100;SDS011;62462;52.530;21.682;2023-05-10T14:52:28;4.28;;;1.83;;
74100;SDS011;62462;52.530;21.682;2023-05-10T14:54:54;4.80;;;2.00;;
74100;SDS011;62462;52.530;21.682;2023-05-10T14:57:20;4.53;;;1.75;;
74100;SDS011;62462;52.530;21.682;2023-05-10T14:59:46;3.97;;;2.20;;
74100;SDS011;62462;52.530;21.682;2023-05-10T15:02:13;11.63;;;2.10;;
74100;SDS011;62462;52.530;21.682;2023-05-10T15:04:38;5.22;;;2.00;;